Time;durP1;ratioP1;P1;durP2;ratioP2;P2;SDS_P1;SDS_P2;PMS_P1;PMS_P2;Temp;Humidity;BMP_temperature;BMP_pressure;BME280_temperature;BME280_humidity;BME280_pressure;Samples;Min_cycle;Max_cycle;Signal;HPM_P1;HPM_P2
2021/06/21 00:02:26;;;;;;;4.10;2.60;;;;;;;;;;5113915;28;20456;-73
2021/06/21 00:04:53;;;;;;;3.93;3.07;;;;;;;;;;5113305;28;20418;-75
2021/06/21 00:07:19;;;;;;;3.70;3.20;;;;;;;;;;5113597;28;20785;-73
2021/06/21 00:09:45;;;;;;;4.13;3.10;;;;;;;;;;5113417;28;20427;-75
2021/06/21 00:12:12;;;;;;;4.20;3.80;;;;;;;;;;5113304;28;20491;-76
2021/06/21 00:14:39;;;;;;;5.80;3.80;;;;;;;;;;5100571;28;20540;-75
2021/06/21 00:17:05;;;;;;;4.80;3.27;;;;;;;;;;5093293;28;20486;-74
2021/06/21 00:19:31;;;;;;;4.60;3.57;;;;;;;;;;5102036;28;20771;-73
2021/06/21 00:21:58;;;;;;;4.43;3.70;;;;;;;;;;5106676;28;20429;-73
2021/06/21 00:24:24;;;;;;;4.90;3.60;;;;;;;;;;5092882;28;20897;-74
2021/06/21 00:26:51;;;;;;;8.60;4.10;;;;;;;;;;5092997;28;20444;-72
2021/06/21 00:29:17;;;;;;;9.20;4.60;;;;;;;;;;5093658;28;20427;-73
2021/06/21 00:31:43;;;;;;;4.33;3.80;;;;;;;;;;5093015;28;20432;-72
2021/06/21 00:34:10;;;;;;;4.73;3.80;;;;;;;;;;5092786;28;20462;-74
2021/06/21 00:36:36;;;;;;;5.10;4.13;;;;;;;;;;5097223;28;20474;-72
2021/06/21 00:39:04;;;;;;;10.23;4.17;;;;;;;;;;5096826;28;20408;-75
2021/06/21 00:41:30;;;;;;;4.67;4.17;;;;;;;;;;5097333;28;20512;-74
2021/06/21 00:43:56;;;;;;;5.30;4.00;;;;;;;;;;5096634;28;20436;-74
2021/06/21 00:46:22;;;;;;;4.80;4.30;;;;;;;;;;5096960;28;20423;-74
2021/06/21 00:48:48;;;;;;;5.33;4.03;;;;;;;;;;5097031;28;20885;-75
2021/06/21 00:51:15;;;;;;;4.73;4.33;;;;;;;;;;5096662;28;20739;-74
2021/06/21 00:53:42;;;;;;;5.90;3.87;;;;;;;;;;5096626;28;20802;-71
2021/06/21 00:56:08;;;;;;;5.53;4.40;;;;;;;;;;5096888;28;20422;-75
2021/06/21 00:58:34;;;;;;;4.80;4.33;;;;;;;;;;5096600;28;20781;-75
2021/06/21 01:01:01;;;;;;;5.37;3.70;;;;;;;;;;5096726;28;20932;-75
2021/06/21 01:03:27;;;;;;;7.87;4.20;;;;;;;;;;5096596;28;20680;-72
2021/06/21 01:05:53;;;;;;;7.23;4.50;;;;;;;;;;5096705;28;20419;-75
2021/06/21 01:08:19;;;;;;;5.07;4.13;;;;;;;;;;5094853;28;20511;-74
2021/06/21 01:10:47;;;;;;;5.00;4.30;;;;;;;;;;5096385;28;20516;-73
2021/06/21 01:13:36;;;;;;;8.07;5.10;;;;;;;;;;5096105;28;20464;-73
2021/06/21 01:16:05;;;;;;;6.77;4.30;;;;;;;;;;5096410;28;20889;-74
2021/06/21 01:18:33;;;;;;;5.73;4.53;;;;;;;;;;5100393;28;20492;-73
2021/06/21 01:21:18;;;;;;;5.80;4.40;;;;;;;;;;5100767;28;20423;-75
2021/06/21 01:24:00;;;;;;;6.20;5.40;;;;;;;;;;5096014;28;20416;-72
2021/06/21 01:26:47;;;;;;;5.20;4.57;;;;;;;;;;5096088;28;20409;-72
2021/06/21 01:29:31;;;;;;;5.10;4.27;;;;;;;;;;5097720;28;20500;-73
2021/06/21 01:32:23;;;;;;;5.07;4.17;;;;;;;;;;5103935;28;20435;-73
2021/06/21 01:34:56;;;;;;;6.63;4.63;;;;;;;;;;5072180;28;20926;-73
2021/06/21 01:37:23;;;;;;;5.00;4.10;;;;;;;;;;5096222;28;20416;-71
2021/06/21 01:39:51;;;;;;;6.10;4.73;;;;;;;;;;5095525;28;20442;-75
2021/06/21 01:42:20;;;;;;;5.27;4.23;;;;;;;;;;5095884;28;20519;-74
2021/06/21 01:44:48;;;;;;;4.67;4.10;;;;;;;;;;5095597;28;21003;-75
2021/06/21 01:47:15;;;;;;;6.37;4.20;;;;;;;;;;5095274;28;20417;-75
2021/06/21 01:49:44;;;;;;;8.67;4.80;;;;;;;;;;5095527;28;20415;-75
2021/06/21 01:52:11;;;;;;;4.37;3.97;;;;;;;;;;5095780;28;20438;-74
2021/06/21 01:54:39;;;;;;;5.63;4.40;;;;;;;;;;5095255;28;20467;-72
2021/06/21 01:57:05;;;;;;;5.40;4.50;;;;;;;;;;5095935;28;20457;-72
2021/06/21 01:59:31;;;;;;;5.30;4.80;;;;;;;;;;5095240;28;20502;-73
2021/06/21 02:01:58;;;;;;;6.07;4.60;;;;;;;;;;5095307;28;20436;-72
2021/06/21 02:04:26;;;;;;;4.70;4.30;;;;;;;;;;5095225;28;20409;-76
2021/06/21 02:06:52;;;;;;;8.40;4.60;;;;;;;;;;5095163;28;20439;-72
2021/06/21 02:09:25;;;;;;;4.97;4.33;;;;;;;;;;5095330;28;20811;-75
2021/06/21 02:11:52;;;;;;;5.87;4.83;;;;;;;;;;5095215;28;20435;-74
2021/06/21 02:14:22;;;;;;;5.47;4.57;;;;;;;;;;5095063;28;20521;-75
2021/06/21 02:16:50;;;;;;;5.73;5.20;;;;;;;;;;5095089;28;20913;-74
2021/06/21 02:19:16;;;;;;;5.73;4.37;;;;;;;;;;5103896;28;20416;-73
2021/06/21 02:21:42;;;;;;;7.20;4.90;;;;;;;;;;5112419;28;20766;-72
2021/06/21 02:24:09;;;;;;;5.57;4.90;;;;;;;;;;5115196;28;20418;-71
2021/06/21 02:26:35;;;;;;;7.90;5.77;;;;;;;;;;5115387;28;20415;-73
2021/06/21 02:29:02;;;;;;;6.83;5.17;;;;;;;;;;5104879;28;20407;-73
2021/06/21 02:31:29;;;;;;;9.13;5.43;;;;;;;;;;5094722;28;20443;-74
2021/06/21 02:33:55;;;;;;;5.10;4.70;;;;;;;;;;5094789;28;20825;-73
2021/06/21 02:36:21;;;;;;;6.50;5.80;;;;;;;;;;5094856;28;20801;-74
2021/06/21 02:38:47;;;;;;;6.97;5.20;;;;;;;;;;5094884;28;20799;-75
2021/06/21 02:41:13;;;;;;;7.47;5.80;;;;;;;;;;5093276;28;20419;-75
2021/06/21 02:43:39;;;;;;;7.13;5.23;;;;;;;;;;5094574;28;20422;-75
2021/06/21 02:46:05;;;;;;;5.97;5.30;;;;;;;;;;5094323;28;20451;-76
2021/06/21 02:48:31;;;;;;;8.17;6.27;;;;;;;;;;5094418;28;20423;-73
2021/06/21 02:50:57;;;;;;;8.23;5.20;;;;;;;;;;5094433;28;20712;-76
2021/06/21 02:53:41;;;;;;;7.40;6.27;;;;;;;;;;5094688;28;20462;-73
2021/06/21 02:56:30;;;;;;;6.07;5.43;;;;;;;;;;5094305;28;20420;-74
2021/06/21 02:59:10;;;;;;;8.40;6.17;;;;;;;;;;5093278;28;20486;-74
2021/06/21 03:01:41;;;;;;;7.80;6.30;;;;;;;;;;5094551;28;20809;-71
2021/06/21 03:04:09;;;;;;;10.10;6.77;;;;;;;;;;5092961;28;20416;-73
2021/06/21 03:06:36;;;;;;;6.83;5.53;;;;;;;;;;5093981;28;20431;-77
2021/06/21 03:09:02;;;;;;;6.67;5.63;;;;;;;;;;5094402;28;20511;-73
2021/06/21 03:11:28;;;;;;;6.27;5.30;;;;;;;;;;5094382;28;20529;-76
2021/06/21 03:13:55;;;;;;;6.77;5.33;;;;;;;;;;5093973;28;20463;-76
2021/06/21 03:16:23;;;;;;;6.37;5.50;;;;;;;;;;5093943;28;20511;-75
2021/06/21 03:18:49;;;;;;;7.80;5.97;;;;;;;;;;5100614;28;20434;-74
2021/06/21 03:21:18;;;;;;;9.57;7.10;;;;;;;;;;5109705;28;20447;-71
2021/06/21 03:23:44;;;;;;;7.20;6.13;;;;;;;;;;5094071;28;20464;-73
2021/06/21 03:26:10;;;;;;;7.97;6.50;;;;;;;;;;5093883;28;20447;-73
2021/06/21 03:28:36;;;;;;;7.33;6.73;;;;;;;;;;5092385;28;20430;-72
2021/06/21 03:31:06;;;;;;;7.93;7.03;;;;;;;;;;5093894;28;20427;-72
2021/06/21 03:33:33;;;;;;;12.07;7.83;;;;;;;;;;5093652;28;20456;-77
2021/06/21 03:35:59;;;;;;;15.07;6.83;;;;;;;;;;5094019;28;20504;-73
2021/06/21 03:38:27;;;;;;;10.77;8.40;;;;;;;;;;5093501;28;20929;-74
2021/06/21 03:40:56;;;;;;;9.80;7.90;;;;;;;;;;5094166;28;20420;-73
2021/06/21 03:43:23;;;;;;;8.50;7.43;;;;;;;;;;5093478;28;20435;-75
2021/06/21 03:45:50;;;;;;;9.53;8.03;;;;;;;;;;5093451;28;20420;-74
2021/06/21 03:48:16;;;;;;;9.83;8.03;;;;;;;;;;5093492;28;20960;-72
2021/06/21 03:50:42;;;;;;;9.73;8.80;;;;;;;;;;5093471;28;20751;-77
2021/06/21 03:53:09;;;;;;;9.07;8.17;;;;;;;;;;5093255;28;20535;-70
2021/06/21 03:55:35;;;;;;;8.63;7.73;;;;;;;;;;5093388;28;20414;-73
2021/06/21 03:58:02;;;;;;;8.07;6.60;;;;;;;;;;5093201;28;20419;-70
2021/06/21 04:00:29;;;;;;;9.10;8.03;;;;;;;;;;5093324;28;20452;-73
2021/06/21 04:02:57;;;;;;;8.73;7.47;;;;;;;;;;5093064;28;20449;-72
2021/06/21 04:05:23;;;;;;;9.07;8.17;;;;;;;;;;5093426;28;20904;-74
2021/06/21 04:07:49;;;;;;;9.43;7.33;;;;;;;;;;5093081;28;20443;-74
2021/06/21 04:10:16;;;;;;;9.50;8.40;;;;;;;;;;5093084;28;20411;-76
2021/06/21 04:12:43;;;;;;;10.50;8.03;;;;;;;;;;5103054;28;20952;-70
2021/06/21 04:15:11;;;;;;;8.30;7.30;;;;;;;;;;5096624;28;20406;-73
2021/06/21 04:17:37;;;;;;;10.83;8.60;;;;;;;;;;5093180;28;20431;-72
2021/06/21 04:20:07;;;;;;;11.57;8.93;;;;;;;;;;5105516;28;20428;-76
2021/06/21 04:22:34;;;;;;;10.13;8.83;;;;;;;;;;5102094;28;20425;-72
2021/06/21 04:25:00;;;;;;;11.60;9.07;;;;;;;;;;5092751;28;20407;-72
2021/06/21 04:27:26;;;;;;;9.83;8.60;;;;;;;;;;5093068;28;20417;-75
2021/06/21 04:29:52;;;;;;;10.33;9.30;;;;;;;;;;5093932;28;20463;-73
2021/06/21 04:32:18;;;;;;;11.20;10.00;;;;;;;;;;5092928;28;20427;-77
2021/06/21 04:34:44;;;;;;;8.90;8.00;;;;;;;;;;5092815;28;20457;-71
2021/06/21 04:37:10;;;;;;;9.57;8.07;;;;;;;;;;5092979;28;20182;-70
2021/06/21 04:39:36;;;;;;;9.93;8.33;;;;;;;;;;5092733;28;20470;-76
2021/06/21 04:42:02;;;;;;;11.07;8.07;;;;;;;;;;5092937;28;20422;-71
2021/06/21 04:44:28;;;;;;;9.80;8.57;;;;;;;;;;5092708;28;20470;-73
2021/06/21 04:46:54;;;;;;;9.17;8.20;;;;;;;;;;5093007;28;20409;-70
2021/06/21 04:49:20;;;;;;;9.43;8.40;;;;;;;;;;5092690;28;20467;-71
2021/06/21 04:51:49;;;;;;;8.60;7.70;;;;;;;;;;5092889;28;20442;-74
2021/06/21 04:54:15;;;;;;;8.23;7.47;;;;;;;;;;5092737;28;20468;-74
2021/06/21 04:56:41;;;;;;;8.10;6.97;;;;;;;;;;5092611;28;20407;-74
2021/06/21 04:59:07;;;;;;;9.00;8.13;;;;;;;;;;5091558;28;20426;-73
2021/06/21 05:01:33;;;;;;;8.53;7.70;;;;;;;;;;5092931;28;20441;-75
2021/06/21 05:04:01;;;;;;;8.33;7.53;;;;;;;;;;5096955;28;20856;-75
2021/06/21 05:06:30;;;;;;;7.47;6.47;;;;;;;;;;5101548;28;20968;-72
2021/06/21 05:08:56;;;;;;;8.50;7.17;;;;;;;;;;5092537;28;20454;-72
2021/06/21 05:11:22;;;;;;;10.03;7.83;;;;;;;;;;5092641;28;20419;-71
2021/06/21 05:13:48;;;;;;;7.13;6.30;;;;;;;;;;5092490;28;20453;-74
2021/06/21 05:16:16;;;;;;;11.40;7.93;;;;;;;;;;5092618;28;20415;-71
2021/06/21 05:18:42;;;;;;;8.97;7.73;;;;;;;;;;5097907;28;20523;-71
2021/06/21 05:21:08;;;;;;;9.37;7.43;;;;;;;;;;5108521;28;20487;-72
2021/06/21 05:23:34;;;;;;;7.87;7.20;;;;;;;;;;5116405;28;20500;-72
2021/06/21 05:26:00;;;;;;;7.13;6.40;;;;;;;;;;5116719;28;20520;-73
2021/06/21 05:28:26;;;;;;;7.63;6.93;;;;;;;;;;5110224;28;20426;-74
2021/06/21 05:30:52;;;;;;;7.10;6.27;;;;;;;;;;5096294;28;20425;-74
2021/06/21 05:33:18;;;;;;;7.27;6.43;;;;;;;;;;5095569;28;20461;-74
2021/06/21 05:35:44;;;;;;;8.30;6.70;;;;;;;;;;5096465;28;20751;-74
2021/06/21 05:38:10;;;;;;;9.33;7.03;;;;;;;;;;5095826;28;20442;-72
2021/06/21 05:40:36;;;;;;;8.00;7.20;;;;;;;;;;5096091;28;20424;-73
2021/06/21 05:43:02;;;;;;;8.50;7.00;;;;;;;;;;5095718;28;20442;-73
2021/06/21 05:45:28;;;;;;;8.10;7.03;;;;;;;;;;5095565;28;20417;-71
2021/06/21 05:47:54;;;;;;;8.73;7.53;;;;;;;;;;5095638;28;20475;-74
2021/06/21 05:50:20;;;;;;;7.43;6.73;;;;;;;;;;5095667;28;20744;-74
2021/06/21 05:52:49;;;;;;;7.03;6.33;;;;;;;;;;5095460;28;20436;-72
2021/06/21 05:55:18;;;;;;;7.93;6.30;;;;;;;;;;5095997;28;20410;-73
2021/06/21 05:57:44;;;;;;;7.30;6.60;;;;;;;;;;5095629;28;20419;-74
2021/06/21 06:00:10;;;;;;;7.07;6.37;;;;;;;;;;5095785;28;20409;-72
2021/06/21 06:02:36;;;;;;;7.17;6.47;;;;;;;;;;5095481;28;20526;-70
2021/06/21 06:05:03;;;;;;;6.60;6.00;;;;;;;;;;5095868;28;20518;-69
2021/06/21 06:07:29;;;;;;;8.83;6.63;;;;;;;;;;5094966;28;20518;-74
2021/06/21 06:09:57;;;;;;;7.57;6.87;;;;;;;;;;5095256;28;20463;-72
2021/06/21 06:12:23;;;;;;;7.40;5.70;;;;;;;;;;5095347;28;20418;-73
2021/06/21 06:14:49;;;;;;;6.77;6.23;;;;;;;;;;5094839;28;20500;-74
2021/06/21 06:17:15;;;;;;;7.60;6.30;;;;;;;;;;5095473;28;20939;-72
2021/06/21 06:19:41;;;;;;;6.90;6.20;;;;;;;;;;5108831;28;21115;-72
2021/06/21 06:22:07;;;;;;;5.93;5.53;;;;;;;;;;5105413;28;20562;-73
2021/06/21 06:24:34;;;;;;;6.40;5.83;;;;;;;;;;5115340;28;20489;-71
2021/06/21 06:27:00;;;;;;;5.40;5.00;;;;;;;;;;5115567;27;20421;-71
2021/06/21 06:29:30;;;;;;;6.23;5.63;;;;;;;;;;5115044;28;20415;-71
2021/06/21 06:31:56;;;;;;;7.50;6.67;;;;;;;;;;5112406;28;20482;-71
2021/06/21 06:34:23;;;;;;;6.57;5.97;;;;;;;;;;5114836;28;20469;-71
2021/06/21 06:36:49;;;;;;;6.50;5.90;;;;;;;;;;5113649;28;20422;-72
2021/06/21 06:39:15;;;;;;;5.90;5.40;;;;;;;;;;5114979;28;20420;-71
2021/06/21 06:41:41;;;;;;;5.90;5.30;;;;;;;;;;5110493;28;20442;-72
2021/06/21 06:44:07;;;;;;;6.30;5.70;;;;;;;;;;5099251;28;20421;-71
2021/06/21 06:46:33;;;;;;;5.83;5.23;;;;;;;;;;5104665;28;20420;-72
2021/06/21 06:49:00;;;;;;;5.90;5.40;;;;;;;;;;5102874;28;20508;-72
2021/06/21 06:51:31;;;;;;;6.00;5.37;;;;;;;;;;5105571;27;21231;-71
2021/06/21 06:54:11;;;;;;;6.00;5.40;;;;;;;;;;5105803;28;21181;-73
2021/06/21 06:59:22;;;;;;;6.00;5.40;;;;;;;;;;5111051;28;20481;-73
2021/06/21 07:01:48;;;;;;;5.50;5.00;;;;;;;;;;5110226;28;20463;-72
2021/06/21 07:04:14;;;;;;;6.73;5.57;;;;;;;;;;5110290;28;20449;-73
2021/06/21 07:06:40;;;;;;;5.23;4.83;;;;;;;;;;5110708;28;20897;-72
2021/06/21 07:09:07;;;;;;;6.37;5.77;;;;;;;;;;5104005;28;20476;-70
2021/06/21 07:11:36;;;;;;;4.93;4.53;;;;;;;;;;5110262;28;20446;-71
2021/06/21 07:14:02;;;;;;;7.67;4.90;;;;;;;;;;5107389;28;20550;-71
2021/06/21 07:16:28;;;;;;;5.87;4.93;;;;;;;;;;5110453;28;20464;-70
2021/06/21 07:18:54;;;;;;;6.60;4.60;;;;;;;;;;5109945;28;20420;-72
2021/06/21 07:21:21;;;;;;;5.13;4.73;;;;;;;;;;5104071;28;20421;-73
2021/06/21 07:23:47;;;;;;;6.63;5.23;;;;;;;;;;5110265;28;20481;-72
2021/06/21 07:26:13;;;;;;;4.90;4.50;;;;;;;;;;5106920;28;20419;-72
2021/06/21 07:28:39;;;;;;;5.27;4.77;;;;;;;;;;5110120;28;20425;-71
2021/06/21 07:31:05;;;;;;;5.10;4.50;;;;;;;;;;5110296;28;20482;-74
2021/06/21 07:33:31;;;;;;;4.93;4.43;;;;;;;;;;5109778;28;20468;-71
2021/06/21 07:35:58;;;;;;;6.23;5.03;;;;;;;;;;5109999;28;20421;-72
2021/06/21 07:38:24;;;;;;;5.10;4.63;;;;;;;;;;5108630;28;20421;-72
2021/06/21 07:40:50;;;;;;;5.00;4.57;;;;;;;;;;5110219;28;20966;-70
2021/06/21 07:43:16;;;;;;;5.10;4.60;;;;;;;;;;5109948;28;20484;-71
2021/06/21 07:45:43;;;;;;;4.83;4.40;;;;;;;;;;5106334;28;20418;-72
2021/06/21 07:48:10;;;;;;;5.67;4.70;;;;;;;;;;5109893;28;20510;-73
2021/06/21 07:50:36;;;;;;;5.70;4.47;;;;;;;;;;5109910;28;20414;-72
2021/06/21 07:53:03;;;;;;;4.10;3.80;;;;;;;;;;5109809;28;20525;-73
2021/06/21 07:55:30;;;;;;;3.83;3.53;;;;;;;;;;5109921;28;20425;-70
2021/06/21 07:57:56;;;;;;;4.60;4.20;;;;;;;;;;5109849;28;20769;-71
2021/06/21 08:00:24;;;;;;;4.40;4.00;;;;;;;;;;5109795;28;20785;-71
2021/06/21 08:02:51;;;;;;;5.17;4.67;;;;;;;;;;5109666;28;20440;-71
2021/06/21 08:05:17;;;;;;;3.90;3.50;;;;;;;;;;5109694;28;20426;-71
2021/06/21 08:07:43;;;;;;;3.90;3.60;;;;;;;;;;5109452;28;20439;-72
2021/06/21 08:10:10;;;;;;;3.87;3.57;;;;;;;;;;5109424;28;20418;-74
2021/06/21 08:12:36;;;;;;;5.77;4.00;;;;;;;;;;5109183;28;20434;-71
2021/06/21 08:15:02;;;;;;;3.67;3.37;;;;;;;;;;5104031;28;20430;-73
2021/06/21 08:17:28;;;;;;;3.90;3.60;;;;;;;;;;5109288;28;20495;-71
2021/06/21 08:19:54;;;;;;;3.50;2.97;;;;;;;;;;5108274;28;20454;-72
2021/06/21 08:22:23;;;;;;;4.23;3.23;;;;;;;;;;5109414;28;20930;-72
2021/06/21 08:24:50;;;;;;;3.27;3.00;;;;;;;;;;5109400;28;20428;-72
2021/06/21 08:27:16;;;;;;;3.53;3.23;;;;;;;;;;5103696;28;20773;-72
2021/06/21 08:29:42;;;;;;;3.70;3.40;;;;;;;;;;5109133;28;20452;-72
2021/06/21 08:32:08;;;;;;;3.47;3.17;;;;;;;;;;5109133;28;20434;-71
2021/06/21 08:34:34;;;;;;;3.30;2.80;;;;;;;;;;5109254;28;20522;-71
2021/06/21 08:37:01;;;;;;;2.73;2.50;;;;;;;;;;5109540;28;20422;-73
2021/06/21 08:39:27;;;;;;;3.00;2.70;;;;;;;;;;5107913;28;20416;-73
2021/06/21 08:41:55;;;;;;;2.60;2.40;;;;;;;;;;5109340;28;20442;-72
2021/06/21 08:44:21;;;;;;;3.20;2.43;;;;;;;;;;5107316;28;20425;-72
2021/06/21 08:46:49;;;;;;;2.87;2.27;;;;;;;;;;5107883;28;20419;-71
2021/06/21 08:49:15;;;;;;;3.07;2.60;;;;;;;;;;5106823;28;20773;-71
2021/06/21 08:51:42;;;;;;;2.50;2.30;;;;;;;;;;5109381;28;20524;-74
2021/06/21 08:54:08;;;;;;;2.60;2.40;;;;;;;;;;5109056;28;20602;-70
2021/06/21 08:56:34;;;;;;;3.03;2.37;;;;;;;;;;5110191;28;20900;-71
2021/06/21 08:59:05;;;;;;;2.40;2.07;;;;;;;;;;5113341;28;20484;-71
2021/06/21 09:01:31;;;;;;;2.40;2.07;;;;;;;;;;5113003;28;20434;-71
2021/06/21 09:03:58;;;;;;;2.33;1.63;;;;;;;;;;5113119;28;20415;-73
2021/06/21 09:06:24;;;;;;;2.10;1.90;;;;;;;;;;5113067;27;20419;-73
2021/06/21 09:08:54;;;;;;;2.23;1.70;;;;;;;;;;5111306;28;20972;-71
2021/06/21 09:11:20;;;;;;;3.00;2.10;;;;;;;;;;5111605;28;20499;-72
2021/06/21 09:13:47;;;;;;;2.50;2.30;;;;;;;;;;5112084;28;20471;-73
2021/06/21 09:16:13;;;;;;;2.80;2.17;;;;;;;;;;5112877;28;20523;-72
2021/06/21 09:18:40;;;;;;;2.53;2.33;;;;;;;;;;5112427;28;20513;-71
2021/06/21 09:21:25;;;;;;;5.60;2.30;;;;;;;;;;5110911;28;20422;-71
2021/06/21 09:23:53;;;;;;;2.50;2.10;;;;;;;;;;5109790;28;20453;-72
2021/06/21 09:26:24;;;;;;;2.33;1.97;;;;;;;;;;5112456;28;20415;-70
2021/06/21 09:28:50;;;;;;;1.93;1.63;;;;;;;;;;5112514;28;20422;-72
2021/06/21 09:31:17;;;;;;;2.60;2.10;;;;;;;;;;5112442;28;20490;-71
2021/06/21 09:33:44;;;;;;;2.67;2.00;;;;;;;;;;5112340;28;20471;-71
2021/06/21 09:36:10;;;;;;;2.37;2.07;;;;;;;;;;5112366;28;20495;-72
2021/06/21 09:38:36;;;;;;;2.57;2.20;;;;;;;;;;5113046;27;20511;-72
2021/06/21 09:41:02;;;;;;;2.40;2.17;;;;;;;;;;5112328;28;20830;-73
2021/06/21 09:43:33;;;;;;;2.60;2.20;;;;;;;;;;5112210;28;20439;-71
2021/06/21 09:46:14;;;;;;;2.57;1.80;;;;;;;;;;5109543;28;20429;-72
2021/06/21 09:48:50;;;;;;;3.17;2.07;;;;;;;;;;5112325;28;20418;-72
2021/06/21 09:51:27;;;;;;;2.77;2.13;;;;;;;;;;5108299;28;20426;-73
2021/06/21 09:53:53;;;;;;;2.30;2.10;;;;;;;;;;5112027;28;20461;-72
2021/06/21 09:56:34;;;;;;;2.30;2.03;;;;;;;;;;5111963;27;20408;-71
2021/06/21 09:59:00;;;;;;;2.47;2.10;;;;;;;;;;5112075;28;20774;-73
2021/06/21 10:01:28;;;;;;;2.80;2.50;;;;;;;;;;5111801;28;20423;-72
2021/06/21 10:03:54;;;;;;;2.27;2.07;;;;;;;;;;5111650;28;20473;-73
2021/06/21 10:06:20;;;;;;;2.50;2.30;;;;;;;;;;5111814;27;20423;-72
2021/06/21 10:08:47;;;;;;;2.30;2.00;;;;;;;;;;5111144;28;20435;-73
2021/06/21 10:11:29;;;;;;;2.43;2.23;;;;;;;;;;5111791;28;20480;-72
2021/06/21 10:13:59;;;;;;;2.17;1.93;;;;;;;;;;5111727;27;20469;-72
2021/06/21 10:16:26;;;;;;;2.37;2.00;;;;;;;;;;5111701;28;20422;-72
2021/06/21 10:18:52;;;;;;;2.27;2.07;;;;;;;;;;5108762;28;20432;-73
2021/06/21 10:21:18;;;;;;;4.63;2.10;;;;;;;;;;5097965;28;20481;-72
2021/06/21 10:23:44;;;;;;;2.20;2.00;;;;;;;;;;5111935;28;20503;-73
2021/06/21 10:26:11;;;;;;;2.10;1.90;;;;;;;;;;5111412;28;20423;-73
2021/06/21 10:28:37;;;;;;;2.73;2.37;;;;;;;;;;5104680;28;20429;-73
2021/06/21 10:31:03;;;;;;;2.10;1.90;;;;;;;;;;5091309;28;20427;-72
2021/06/21 10:33:30;;;;;;;2.00;1.80;;;;;;;;;;5091703;28;20549;-72
2021/06/21 10:35:59;;;;;;;2.30;2.00;;;;;;;;;;5091083;28;20424;-73
2021/06/21 10:38:25;;;;;;;2.07;1.80;;;;;;;;;;5099975;27;20411;-73
2021/06/21 10:41:01;;;;;;;2.40;2.20;;;;;;;;;;5103505;27;20427;-72
2021/06/21 10:43:50;;;;;;;2.73;2.40;;;;;;;;;;5090676;28;20990;-71
2021/06/21 10:46:23;;;;;;;2.17;1.97;;;;;;;;;;5090531;28;20933;-73
2021/06/21 10:48:58;;;;;;;2.30;2.10;;;;;;;;;;5101435;28;21063;-72
2021/06/21 10:51:30;;;;;;;2.27;2.07;;;;;;;;;;5090727;28;20811;-72
2021/06/21 10:53:57;;;;;;;2.17;1.97;;;;;;;;;;5090336;28;20469;-73
2021/06/21 10:56:42;;;;;;;2.50;2.00;;;;;;;;;;5091088;28;20431;-72
2021/06/21 10:59:12;;;;;;;2.50;2.30;;;;;;;;;;5090467;28;20437;-71
2021/06/21 11:01:45;;;;;;;2.50;2.00;;;;;;;;;;5090379;28;20429;-72
2021/06/21 11:04:11;;;;;;;2.20;2.00;;;;;;;;;;5089969;28;20899;-73
2021/06/21 11:06:38;;;;;;;2.20;2.00;;;;;;;;;;5090622;28;20412;-73
2021/06/21 11:09:05;;;;;;;2.90;2.60;;;;;;;;;;5090286;28;20426;-72
2021/06/21 11:11:36;;;;;;;2.63;2.43;;;;;;;;;;5090277;28;20520;-74
2021/06/21 11:14:06;;;;;;;2.57;2.37;;;;;;;;;;5090023;28;20457;-70
2021/06/21 11:16:32;;;;;;;2.33;2.13;;;;;;;;;;5090221;28;20456;-71
2021/06/21 11:19:22;;;;;;;3.37;2.00;;;;;;;;;;5097514;28;20428;-72
2021/06/21 11:21:49;;;;;;;2.57;2.37;;;;;;;;;;5090307;27;20444;-71
2021/06/21 11:24:34;;;;;;;2.53;2.33;;;;;;;;;;5090128;28;20476;-73
2021/06/21 11:27:01;;;;;;;2.30;2.00;;;;;;;;;;5090133;28;20420;-71
2021/06/21 11:29:28;;;;;;;2.30;2.10;;;;;;;;;;5102552;28;20482;-76
2021/06/21 11:31:58;;;;;;;2.40;2.13;;;;;;;;;;5090018;28;20517;-72
2021/06/21 11:34:44;;;;;;;3.53;2.50;;;;;;;;;;5089641;28;20476;-73
2021/06/21 11:37:28;;;;;;;2.70;2.50;;;;;;;;;;5090210;28;20420;-71
2021/06/21 11:40:30;;;;;;;3.10;2.80;;;;;;;;;;5106526;27;20412;-72
2021/06/21 11:43:02;;;;;;;2.80;2.60;;;;;;;;;;5047152;28;20441;-71
2021/06/21 11:45:46;;;;;;;2.97;2.70;;;;;;;;;;5083279;28;20425;-72
2021/06/21 11:48:12;;;;;;;3.70;2.60;;;;;;;;;;5089580;28;20413;-72
2021/06/21 11:50:38;;;;;;;2.93;2.73;;;;;;;;;;5090113;28;20413;-73
2021/06/21 11:53:08;;;;;;;2.80;2.50;;;;;;;;;;5089492;28;20444;-69
2021/06/21 11:55:35;;;;;;;2.67;2.47;;;;;;;;;;5089912;28;20520;-73
2021/06/21 11:58:02;;;;;;;3.43;2.67;;;;;;;;;;5092695;28;20424;-73
2021/06/21 12:00:33;;;;;;;2.87;2.67;;;;;;;;;;5089446;28;20444;-73
2021/06/21 12:03:10;;;;;;;3.40;3.10;;;;;;;;;;5089302;28;20454;-72
2021/06/21 12:05:36;;;;;;;3.90;3.30;;;;;;;;;;5089499;28;20428;-72
2021/06/21 12:08:15;;;;;;;3.70;3.00;;;;;;;;;;5089187;28;20441;-73
2021/06/21 12:10:41;;;;;;;3.53;3.23;;;;;;;;;;5089524;28;20451;-73
2021/06/21 12:13:07;;;;;;;3.60;3.30;;;;;;;;;;5088937;28;20969;-72
2021/06/21 12:15:35;;;;;;;3.00;2.77;;;;;;;;;;5089057;28;20421;-71
2021/06/21 12:18:01;;;;;;;3.57;3.27;;;;;;;;;;5089089;28;20413;-73
2021/06/21 12:20:27;;;;;;;3.97;3.67;;;;;;;;;;5103095;28;20574;-70
2021/06/21 12:22:58;;;;;;;3.60;3.30;;;;;;;;;;5109082;28;20492;-71
2021/06/21 12:25:34;;;;;;;3.70;3.40;;;;;;;;;;5103239;28;20409;-71
2021/06/21 12:28:09;;;;;;;3.40;3.10;;;;;;;;;;5091978;28;20477;-72
2021/06/21 12:30:39;;;;;;;3.90;3.60;;;;;;;;;;5099050;28;20477;-72
2021/06/21 12:33:21;;;;;;;6.10;4.33;;;;;;;;;;5093448;28;20539;-72
2021/06/21 12:36:05;;;;;;;4.70;3.90;;;;;;;;;;5093411;28;20470;-72
2021/06/21 12:38:31;;;;;;;3.40;3.10;;;;;;;;;;5104358;27;20402;-70
2021/06/21 12:40:58;;;;;;;5.33;3.37;;;;;;;;;;5097566;27;20557;-71
2021/06/21 12:43:24;;;;;;;4.50;4.10;;;;;;;;;;5093203;28;20535;-70
2021/06/21 12:45:50;;;;;;;4.37;3.97;;;;;;;;;;5092256;28;20467;-70
2021/06/21 12:48:16;;;;;;;4.20;3.80;;;;;;;;;;5092980;28;20420;-72
2021/06/21 12:50:42;;;;;;;4.00;3.60;;;;;;;;;;5093047;28;20408;-70
2021/06/21 12:53:10;;;;;;;3.70;3.40;;;;;;;;;;5092873;28;20559;-71
2021/06/21 12:55:37;;;;;;;4.57;4.10;;;;;;;;;;5093003;28;20443;-72
2021/06/21 12:58:07;;;;;;;4.53;3.83;;;;;;;;;;5093199;28;20820;-71
2021/06/21 13:00:39;;;;;;;4.10;3.30;;;;;;;;;;5092931;28;20415;-71
2021/06/21 13:03:08;;;;;;;3.70;3.40;;;;;;;;;;5092609;28;20440;-72
2021/06/21 13:05:39;;;;;;;3.30;3.10;;;;;;;;;;5092848;28;20462;-71
2021/06/21 13:08:05;;;;;;;4.80;3.93;;;;;;;;;;5092578;28;21013;-72
2021/06/21 13:10:32;;;;;;;4.83;4.43;;;;;;;;;;5092660;28;20413;-70
2021/06/21 13:13:02;;;;;;;6.30;4.67;;;;;;;;;;5092693;28;20446;-71
2021/06/21 13:15:38;;;;;;;4.70;4.27;;;;;;;;;;5092571;28;20429;-71
2021/06/21 13:18:04;;;;;;;4.63;4.23;;;;;;;;;;5099518;28;20472;-71
2021/06/21 13:20:31;;;;;;;3.93;3.63;;;;;;;;;;5108976;28;20421;-71
2021/06/21 13:22:58;;;;;;;4.03;3.70;;;;;;;;;;5110306;28;20430;-72
2021/06/21 13:25:24;;;;;;;4.00;3.60;;;;;;;;;;5112761;28;20427;-71
2021/06/21 13:27:52;;;;;;;3.63;3.33;;;;;;;;;;5112722;28;20417;-73
2021/06/21 13:30:29;;;;;;;3.70;3.40;;;;;;;;;;5093167;28;20413;-72
2021/06/21 13:32:56;;;;;;;3.50;3.20;;;;;;;;;;5092063;28;20424;-72
2021/06/21 13:35:23;;;;;;;3.93;3.37;;;;;;;;;;5092123;28;20445;-73
2021/06/21 13:37:49;;;;;;;3.77;3.47;;;;;;;;;;5092393;28;20416;-73
2021/06/21 13:40:18;;;;;;;3.87;3.57;;;;;;;;;;5092056;28;20413;-72
2021/06/21 13:42:48;;;;;;;3.83;3.53;;;;;;;;;;5090967;28;20429;-72
2021/06/21 13:45:22;;;;;;;3.60;3.30;;;;;;;;;;5092272;28;20409;-73
2021/06/21 13:47:54;;;;;;;4.10;3.80;;;;;;;;;;5090495;28;20422;-71
2021/06/21 13:50:25;;;;;;;5.43;4.00;;;;;;;;;;5092405;28;20492;-72
2021/06/21 13:52:51;;;;;;;3.77;3.47;;;;;;;;;;5093876;28;20527;-73
2021/06/21 13:55:19;;;;;;;4.17;3.87;;;;;;;;;;5091899;28;20491;-71
2021/06/21 13:57:47;;;;;;;3.90;3.60;;;;;;;;;;5110157;28;20415;-71
2021/06/21 14:00:31;;;;;;;4.33;3.93;;;;;;;;;;5108975;28;20415;-71
2021/06/21 14:02:58;;;;;;;3.70;3.40;;;;;;;;;;5091932;28;20432;-72
2021/06/21 14:05:26;;;;;;;4.20;3.80;;;;;;;;;;5091528;28;20481;-72
2021/06/21 14:07:52;;;;;;;4.90;4.37;;;;;;;;;;5091495;28;20433;-72
2021/06/21 14:10:19;;;;;;;32.67;29.40;;;;;;;;;;5091704;28;20424;-73
2021/06/21 14:12:45;;;;;;;34.33;29.87;;;;;;;;;;5091565;28;20451;-72
2021/06/21 14:15:11;;;;;;;6.20;5.70;;;;;;;;;;5091453;28;20468;-71
2021/06/21 14:17:38;;;;;;;14.00;12.43;;;;;;;;;;5100762;28;20412;-73
2021/06/21 14:20:05;;;;;;;7.40;6.50;;;;;;;;;;5096356;28;20443;-72
2021/06/21 14:22:31;;;;;;;6.07;5.57;;;;;;;;;;5104120;28;20437;-73
2021/06/21 14:24:57;;;;;;;5.93;4.60;;;;;;;;;;5091072;28;20409;-71
2021/06/21 14:27:23;;;;;;;8.00;5.17;;;;;;;;;;5091332;28;20427;-71
2021/06/21 14:29:49;;;;;;;4.80;4.40;;;;;;;;;;5094845;28;20420;-72
2021/06/21 14:32:15;;;;;;;5.50;4.93;;;;;;;;;;5091135;28;20573;-74
2021/06/21 14:34:41;;;;;;;5.37;4.87;;;;;;;;;;5090955;28;20482;-72
2021/06/21 14:37:07;;;;;;;4.87;4.53;;;;;;;;;;5091347;28;20849;-73
2021/06/21 14:39:33;;;;;;;4.63;4.20;;;;;;;;;;5090888;28;20410;-72
2021/06/21 14:42:01;;;;;;;4.83;4.47;;;;;;;;;;5091074;28;20475;-74
2021/06/21 14:44:27;;;;;;;5.10;4.63;;;;;;;;;;5094695;28;20950;-72
2021/06/21 14:46:53;;;;;;;5.63;5.00;;;;;;;;;;5091339;28;20425;-72
2021/06/21 14:49:19;;;;;;;5.30;4.80;;;;;;;;;;5090613;28;20778;-74
2021/06/21 14:51:45;;;;;;;4.87;4.47;;;;;;;;;;5090486;28;20447;-73
2021/06/21 14:54:14;;;;;;;5.50;4.70;;;;;;;;;;5090677;28;20625;-73